createdAt,value
2023-03-06T00:00:42.491Z,15.30
2023-03-06T00:01:48.700Z,15.75
2023-03-06T00:02:52.087Z,15.40
2023-03-06T00:03:55.139Z,11.63
2023-03-06T00:04:57.424Z,15.88
2023-03-06T00:06:00.230Z,12.82
2023-03-06T00:07:01.957Z,12.75
2023-03-06T00:08:03.706Z,13.63
2023-03-06T00:09:05.289Z,16.48
2023-03-06T00:10:07.321Z,13.38
2023-03-06T00:11:08.948Z,15.88
2023-03-06T00:12:10.737Z,13.63
2023-03-06T00:13:15.201Z,13.60
2023-03-06T00:14:16.836Z,16.48
2023-03-06T00:15:19.162Z,15.13
2023-03-06T00:16:20.784Z,15.23
2023-03-06T00:17:22.363Z,15.23
2023-03-06T00:18:23.951Z,16.83
2023-03-06T00:19:25.574Z,12.80
2023-03-06T00:20:27.322Z,12.98
2023-03-06T00:21:28.903Z,13.10
2023-03-06T00:22:30.439Z,14.98
2023-03-06T00:23:32.003Z,13.88
2023-03-06T00:24:33.593Z,14.23
2023-03-06T00:25:38.557Z,11.88
2023-03-06T00:26:41.275Z,15.27
2023-03-06T00:27:43.214Z,13.55
2023-03-06T00:28:44.965Z,12.68
2023-03-06T00:29:49.203Z,12.68
2023-03-06T00:30:50.848Z,11.25
2023-03-06T00:31:52.424Z,14.52
2023-03-06T00:32:54.538Z,13.95
2023-03-06T00:33:56.131Z,12.38
2023-03-06T00:34:57.719Z,14.10
2023-03-06T00:35:59.291Z,12.63
2023-03-06T00:37:00.881Z,13.75
2023-03-06T00:38:02.428Z,18.67
2023-03-06T00:39:04.271Z,16.17
2023-03-06T00:40:12.922Z,15.77
2023-03-06T00:41:14.532Z,15.70
2023-03-06T00:42:17.393Z,13.15
2023-03-06T00:43:18.968Z,12.38
2023-03-06T00:44:20.517Z,13.13
2023-03-06T00:45:22.225Z,15.82
2023-03-06T00:46:23.767Z,14.25
2023-03-06T00:47:25.310Z,15.90
2023-03-06T00:48:26.838Z,12.63
2023-03-06T00:49:28.385Z,14.88
2023-03-06T00:50:29.969Z,14.20
2023-03-06T00:51:31.514Z,13.93
2023-03-06T00:52:33.430Z,12.55
2023-03-06T00:53:34.990Z,13.35
2023-03-06T00:54:36.559Z,15.90
2023-03-06T00:55:38.083Z,16.92
2023-03-06T00:56:39.654Z,34.65
2023-03-06T00:57:41.463Z,21.48
2023-03-06T00:58:42.998Z,19.23
2023-03-06T00:59:44.645Z,14.27
2023-03-06T01:00:46.332Z,13.27
2023-03-06T01:01:48.040Z,13.48
2023-03-06T01:02:49.670Z,15.85
2023-03-06T01:03:51.232Z,15.65
2023-03-06T01:04:52.792Z,17.85
2023-03-06T01:05:54.324Z,14.95
2023-03-06T01:06:55.880Z,15.57
2023-03-06T01:07:57.409Z,16.17
2023-03-06T01:08:59.332Z,18.27
2023-03-06T01:10:00.925Z,18.40
2023-03-06T01:11:02.457Z,14.88
2023-03-06T01:12:04.202Z,16.95
2023-03-06T01:13:06.379Z,16.15
2023-03-06T01:14:07.959Z,14.68
2023-03-06T01:15:12.704Z,14.40
2023-03-06T01:16:18.703Z,18.30
2023-03-06T01:17:20.278Z,13.82
2023-03-06T01:18:21.854Z,19.08
2023-03-06T01:19:23.462Z,14.00
2023-03-06T01:20:25.195Z,15.93
2023-03-06T01:21:26.802Z,15.35
2023-03-06T01:22:28.399Z,14.88
2023-03-06T01:23:29.985Z,17.50
2023-03-06T01:24:31.615Z,15.77
2023-03-06T01:25:33.182Z,21.65
2023-03-06T01:26:34.745Z,18.60
2023-03-06T01:27:36.365Z,18.08
2023-03-06T01:28:39.169Z,17.73
2023-03-06T01:29:40.735Z,16.30
2023-03-06T01:30:42.275Z,20.20
2023-03-06T01:31:43.803Z,18.02
2023-03-06T01:32:45.845Z,19.20
2023-03-06T01:33:47.386Z,17.73
2023-03-06T01:34:48.996Z,17.60
2023-03-06T01:35:50.567Z,17.98
2023-03-06T01:36:52.143Z,18.35
2023-03-06T01:37:53.667Z,14.95
2023-03-06T01:38:55.236Z,17.23
2023-03-06T01:39:56.831Z,17.48
2023-03-06T01:40:58.506Z,18.48
2023-03-06T01:42:00.130Z,16.80
2023-03-06T01:43:23.440Z,17.77
2023-03-06T01:44:25.041Z,18.35
2023-03-06T01:45:26.549Z,17.08
2023-03-06T01:46:45.068Z,18.95
2023-03-06T01:47:46.625Z,18.10
2023-03-06T01:48:50.195Z,16.27
2023-03-06T01:49:51.899Z,17.38
2023-03-06T01:50:54.347Z,21.67
2023-03-06T01:52:01.661Z,17.77
2023-03-06T01:53:03.248Z,18.17
2023-03-06T01:54:11.407Z,18.05
2023-03-06T01:55:17.460Z,22.85
2023-03-06T01:56:19.765Z,19.35
2023-03-06T01:57:33.944Z,18.58
2023-03-06T01:58:36.041Z,15.57
2023-03-06T01:59:40.461Z,17.65
2023-03-06T02:00:42.025Z,16.63
2023-03-06T02:01:44.732Z,16.35
2023-03-06T02:03:12.671Z,16.77
2023-03-06T02:04:14.675Z,25.50
2023-03-06T02:05:16.228Z,17.33
2023-03-06T02:06:21.691Z,16.48
2023-03-06T02:07:23.591Z,16.70
2023-03-06T02:08:26.681Z,16.70
2023-03-06T02:09:30.947Z,18.60
2023-03-06T02:10:32.865Z,17.08
2023-03-06T02:11:34.528Z,16.45
2023-03-06T02:12:37.674Z,19.48
2023-03-06T02:13:40.343Z,19.00
2023-03-06T02:14:42.722Z,16.23
2023-03-06T02:15:44.337Z,18.85
2023-03-06T02:16:46.001Z,19.73
2023-03-06T02:17:48.759Z,20.40
2023-03-06T02:18:51.468Z,17.13
2023-03-06T02:20:02.991Z,16.10
2023-03-06T02:21:08.610Z,17.45
2023-03-06T02:22:10.722Z,18.98
2023-03-06T02:23:22.755Z,19.08
2023-03-06T02:24:24.315Z,22.48
2023-03-06T02:25:44.238Z,18.08
2023-03-06T02:26:47.619Z,19.80
2023-03-06T02:27:49.726Z,17.42
2023-03-06T02:28:51.286Z,18.45
2023-03-06T02:29:52.845Z,18.02
2023-03-06T02:30:55.695Z,21.10
2023-03-06T02:31:57.648Z,18.00
2023-03-06T02:32:59.256Z,18.88
2023-03-06T02:34:20.973Z,21.63
2023-03-06T02:35:38.467Z,18.73
2023-03-06T02:36:53.813Z,20.38
2023-03-06T02:37:57.838Z,20.00
2023-03-06T02:39:00.057Z,19.45
2023-03-06T02:40:09.439Z,21.45
2023-03-06T02:41:10.987Z,19.20
2023-03-06T02:42:18.976Z,19.05
2023-03-06T02:43:25.600Z,17.20
2023-03-06T02:44:28.635Z,18.60
2023-03-06T02:45:37.896Z,18.20
2023-03-06T02:46:39.556Z,24.00
2023-03-06T02:47:41.137Z,20.17
2023-03-06T02:48:42.695Z,19.75
2023-03-06T02:49:44.237Z,21.65
2023-03-06T02:50:46.644Z,16.40
2023-03-06T02:51:48.194Z,18.42
2023-03-06T02:52:49.735Z,17.63
2023-03-06T02:53:51.275Z,19.88
2023-03-06T02:54:52.975Z,19.33
2023-03-06T02:55:54.488Z,20.70
2023-03-06T02:56:56.026Z,17.75
2023-03-06T02:57:57.636Z,17.83
2023-03-06T02:58:59.193Z,20.50
2023-03-06T03:00:00.814Z,17.15
2023-03-06T03:01:02.426Z,19.00
2023-03-06T03:02:04.284Z,17.33
2023-03-06T03:03:06.331Z,24.15
2023-03-06T03:04:08.590Z,20.70
2023-03-06T03:05:10.171Z,17.80
2023-03-06T03:06:11.704Z,19.00
2023-03-06T03:07:13.235Z,18.15
2023-03-06T03:08:15.041Z,19.00
2023-03-06T03:09:16.663Z,20.33
2023-03-06T03:10:18.478Z,19.02
2023-03-06T03:11:20.069Z,21.70
2023-03-06T03:12:22.482Z,20.80
2023-03-06T03:13:24.691Z,18.38
2023-03-06T03:14:26.224Z,18.58
2023-03-06T03:15:28.001Z,20.30
2023-03-06T03:16:29.574Z,19.42
2023-03-06T03:17:31.445Z,21.60
2023-03-06T03:18:33.259Z,18.88
2023-03-06T03:19:35.038Z,20.92
2023-03-06T03:20:36.566Z,21.15
2023-03-06T03:21:39.918Z,21.67
2023-03-06T03:22:41.915Z,22.08
2023-03-06T03:23:43.666Z,18.33
2023-03-06T03:24:45.811Z,20.05
2023-03-06T03:25:47.449Z,21.05
2023-03-06T03:26:48.969Z,19.20
2023-03-06T03:27:50.899Z,18.42
2023-03-06T03:28:52.470Z,20.05
2023-03-06T03:29:57.519Z,19.42
2023-03-06T03:31:03.220Z,19.35
2023-03-06T03:32:05.248Z,20.38
2023-03-06T03:33:07.022Z,19.20
2023-03-06T03:34:08.787Z,22.15
2023-03-06T03:35:11.225Z,20.60
2023-03-06T03:36:12.821Z,20.80
2023-03-06T03:37:14.469Z,17.20
2023-03-06T03:38:16.030Z,23.10
2023-03-06T03:39:17.570Z,19.02
2023-03-06T03:40:19.108Z,17.83
2023-03-06T03:41:20.710Z,18.20
2023-03-06T03:42:22.427Z,20.33
2023-03-06T03:43:24.099Z,21.55
2023-03-06T03:44:25.745Z,19.38
2023-03-06T03:45:27.380Z,20.10
2023-03-06T03:46:29.009Z,15.98
2023-03-06T03:47:30.610Z,21.45
2023-03-06T03:48:32.170Z,19.83
2023-03-06T03:49:33.754Z,18.67
2023-03-06T03:50:35.310Z,19.05
2023-03-06T03:51:37.028Z,19.05
2023-03-06T03:52:38.637Z,19.90
2023-03-06T03:53:40.232Z,18.10
2023-03-06T03:54:41.768Z,18.50
2023-03-06T03:55:43.325Z,17.27
2023-03-06T03:56:45.262Z,18.65
2023-03-06T03:57:46.850Z,19.02
2023-03-06T03:58:48.429Z,17.80
2023-03-06T03:59:49.979Z,23.75
2023-03-06T04:00:51.600Z,21.98
2023-03-06T04:01:56.062Z,21.90
2023-03-06T04:02:57.698Z,20.45
2023-03-06T04:03:59.325Z,17.70
2023-03-06T04:05:01.082Z,20.98
2023-03-06T04:06:02.711Z,17.25
2023-03-06T04:07:04.481Z,17.30
2023-03-06T04:08:06.212Z,17.70
2023-03-06T04:09:07.886Z,20.15
2023-03-06T04:10:12.133Z,18.15
2023-03-06T04:11:13.656Z,17.05
2023-03-06T04:12:15.448Z,16.23
2023-03-06T04:13:20.242Z,17.42
2023-03-06T04:14:21.800Z,19.70
2023-03-06T04:15:23.493Z,21.33
2023-03-06T04:16:25.122Z,19.55
2023-03-06T04:17:27.417Z,23.17
2023-03-06T04:18:29.429Z,20.00
2023-03-06T04:19:31.028Z,21.77
2023-03-06T04:20:32.613Z,19.55
2023-03-06T04:21:34.176Z,19.73
2023-03-06T04:22:35.682Z,20.20
2023-03-06T04:23:37.221Z,21.65
2023-03-06T04:24:38.754Z,21.15
2023-03-06T04:25:40.404Z,20.33
2023-03-06T04:26:41.965Z,19.10
2023-03-06T04:27:43.542Z,21.70
2023-03-06T04:28:45.109Z,20.77
2023-03-06T04:29:46.687Z,20.08
2023-03-06T04:30:48.253Z,21.48
2023-03-06T04:31:49.852Z,20.13
2023-03-06T04:32:51.409Z,19.33
2023-03-06T04:33:53.103Z,18.33
2023-03-06T04:34:54.631Z,19.88
2023-03-06T04:35:56.378Z,20.75
2023-03-06T04:36:57.966Z,19.83
2023-03-06T04:37:59.550Z,20.20
2023-03-06T04:39:01.907Z,20.45
2023-03-06T04:40:04.235Z,20.30
2023-03-06T04:41:05.926Z,18.63
2023-03-06T04:42:07.721Z,17.45
2023-03-06T04:43:09.336Z,18.95
2023-03-06T04:44:10.980Z,21.15
2023-03-06T04:45:12.542Z,19.80
2023-03-06T04:46:14.242Z,17.27
2023-03-06T04:47:17.551Z,17.83
2023-03-06T04:48:20.512Z,21.75
2023-03-06T04:49:22.071Z,20.50
2023-03-06T04:50:24.980Z,17.65
2023-03-06T04:51:26.911Z,19.25
2023-03-06T04:52:28.451Z,17.58
2023-03-06T04:53:30.046Z,17.60
2023-03-06T04:54:31.751Z,20.42
2023-03-06T04:55:33.328Z,20.85
2023-03-06T04:56:34.888Z,18.77
2023-03-06T04:57:36.972Z,22.48
2023-03-06T04:58:38.791Z,18.77
2023-03-06T04:59:40.307Z,17.88
2023-03-06T05:00:41.857Z,20.25
2023-03-06T05:01:43.665Z,18.98
2023-03-06T05:02:45.929Z,18.88
2023-03-06T05:03:47.480Z,18.95
2023-03-06T05:04:49.010Z,19.58
2023-03-06T05:05:50.571Z,17.17
2023-03-06T05:06:52.104Z,19.38
2023-03-06T05:07:54.290Z,21.25
2023-03-06T05:08:55.990Z,25.33
2023-03-06T05:09:57.550Z,25.83
2023-03-06T05:11:01.625Z,21.65
2023-03-06T05:12:03.587Z,22.70
2023-03-06T05:13:05.763Z,18.52
2023-03-06T05:14:07.343Z,21.27
2023-03-06T05:15:10.772Z,19.60
2023-03-06T05:16:12.364Z,22.35
2023-03-06T05:17:13.991Z,23.73
2023-03-06T05:18:15.626Z,20.40
2023-03-06T05:19:17.160Z,20.45
2023-03-06T05:20:18.803Z,18.13
2023-03-06T05:21:20.333Z,23.45
2023-03-06T05:22:22.103Z,23.75
2023-03-06T05:23:23.633Z,21.25
2023-03-06T05:24:25.159Z,23.10
2023-03-06T05:25:26.762Z,22.80
2023-03-06T05:26:28.288Z,26.45
2023-03-06T05:27:29.859Z,22.30
2023-03-06T05:28:31.399Z,23.10
2023-03-06T05:29:32.920Z,19.27
2023-03-06T05:30:34.700Z,16.50
2023-03-06T05:31:36.265Z,17.75
2023-03-06T05:32:38.041Z,16.15
2023-03-06T05:33:39.598Z,21.80
2023-03-06T05:34:41.203Z,15.77
2023-03-06T05:35:47.645Z,22.40
2023-03-06T05:36:49.246Z,18.20
2023-03-06T05:37:51.059Z,18.33
2023-03-06T05:38:52.963Z,22.10
2023-03-06T05:39:54.533Z,18.50
2023-03-06T05:40:56.168Z,18.98
2023-03-06T05:41:57.779Z,19.00
2023-03-06T05:42:59.321Z,18.95
2023-03-06T05:44:00.870Z,19.63
2023-03-06T05:45:04.530Z,18.90
2023-03-06T05:46:07.127Z,21.92
2023-03-06T05:47:09.594Z,22.00
2023-03-06T05:48:13.935Z,18.67
2023-03-06T05:49:15.611Z,20.33
2023-03-06T05:50:17.151Z,23.75
2023-03-06T05:51:18.742Z,17.77
2023-03-06T05:52:20.629Z,19.65
2023-03-06T05:53:22.192Z,19.50
2023-03-06T05:54:24.456Z,20.98
2023-03-06T05:55:25.997Z,20.30
2023-03-06T05:56:27.525Z,18.92
2023-03-06T05:57:29.158Z,17.33
2023-03-06T05:58:32.617Z,24.42
2023-03-06T05:59:34.206Z,20.88
2023-03-06T06:00:35.726Z,17.63
2023-03-06T06:01:37.263Z,14.75
2023-03-06T06:02:39.595Z,19.98
2023-03-06T06:03:41.568Z,18.60
2023-03-06T06:04:43.373Z,16.45
2023-03-06T06:05:44.952Z,17.83
2023-03-06T06:06:46.534Z,18.33
2023-03-06T06:07:48.160Z,17.35
2023-03-06T06:08:49.725Z,19.02
2023-03-06T06:09:53.038Z,16.92
2023-03-06T06:10:54.565Z,19.35
2023-03-06T06:12:02.380Z,19.83
2023-03-06T06:13:03.977Z,19.25
2023-03-06T06:14:05.578Z,17.15
2023-03-06T06:15:07.802Z,17.83
2023-03-06T06:16:11.945Z,20.20
2023-03-06T06:17:13.559Z,16.88
2023-03-06T06:18:15.107Z,19.42
2023-03-06T06:19:20.381Z,16.63
2023-03-06T06:20:22.432Z,18.55
2023-03-06T06:21:23.964Z,17.13
2023-03-06T06:22:25.582Z,15.02
2023-03-06T06:23:27.118Z,16.00
2023-03-06T06:24:28.684Z,15.93
2023-03-06T06:25:30.300Z,17.52
2023-03-06T06:26:31.838Z,18.45
2023-03-06T06:27:33.366Z,15.63
2023-03-06T06:28:35.593Z,17.73
2023-03-06T06:29:37.139Z,18.38
2023-03-06T06:30:38.772Z,18.63
2023-03-06T06:31:40.957Z,18.17
2023-03-06T06:32:42.546Z,17.70
2023-03-06T06:33:44.113Z,20.92
2023-03-06T06:34:45.664Z,15.68
2023-03-06T06:35:47.274Z,14.85
2023-03-06T06:36:51.046Z,16.13
2023-03-06T06:37:54.425Z,19.30
2023-03-06T06:38:56.281Z,16.30
2023-03-06T06:39:57.899Z,20.67
2023-03-06T06:41:32.997Z,17.95
2023-03-06T06:42:31.979Z,14.02
2023-03-06T06:43:35.819Z,12.80
2023-03-06T06:44:38.294Z,16.23
2023-03-06T06:45:39.885Z,14.82
2023-03-06T06:48:05.531Z,15.57
2023-03-06T06:49:07.117Z,17.58
2023-03-06T06:50:12.981Z,16.10
2023-03-06T06:51:14.568Z,14.15
2023-03-06T06:52:16.142Z,16.42
2023-03-06T06:53:17.685Z,15.50
2023-03-06T06:54:20.213Z,15.55
2023-03-06T06:55:21.792Z,18.52
2023-03-06T06:56:23.356Z,14.35
2023-03-06T06:57:25.006Z,14.65
2023-03-06T06:58:27.156Z,14.98
2023-03-06T06:59:28.710Z,15.55
2023-03-06T07:00:30.400Z,15.68
2023-03-06T07:01:32.643Z,18.35
2023-03-06T07:02:34.278Z,17.30
2023-03-06T07:03:36.043Z,16.58
2023-03-06T07:04:42.464Z,14.43
2023-03-06T07:05:57.717Z,14.65
2023-03-06T07:06:59.929Z,14.77
2023-03-06T07:08:01.470Z,15.88
2023-03-06T07:09:04.025Z,14.63
2023-03-06T07:10:08.776Z,16.30
2023-03-06T07:11:17.507Z,14.85
2023-03-06T07:12:19.017Z,16.20
2023-03-06T07:13:20.570Z,17.00
2023-03-06T07:14:22.145Z,15.38
2023-03-06T07:15:26.853Z,16.45
2023-03-06T07:16:28.561Z,13.40
2023-03-06T07:17:30.195Z,18.02
2023-03-06T07:18:31.801Z,16.55
2023-03-06T07:19:33.443Z,14.55
2023-03-06T07:20:35.055Z,14.25
2023-03-06T07:21:36.632Z,14.80
2023-03-06T07:22:50.237Z,15.48
2023-03-06T07:23:52.741Z,15.18
2023-03-06T07:24:54.313Z,16.35
2023-03-06T07:25:57.348Z,14.75
2023-03-06T07:26:58.888Z,13.00
2023-03-06T07:28:00.539Z,14.18
2023-03-06T07:29:03.598Z,15.38
2023-03-06T07:30:06.386Z,12.98
2023-03-06T07:31:09.969Z,13.52
2023-03-06T07:32:11.945Z,12.43
2023-03-06T07:33:14.541Z,12.32
2023-03-06T07:34:16.154Z,14.30
2023-03-06T07:35:20.499Z,10.93
2023-03-06T07:36:23.997Z,13.48
2023-03-06T07:37:25.584Z,13.73
2023-03-06T07:38:27.210Z,17.25
2023-03-06T07:39:30.101Z,13.27
2023-03-06T07:40:31.752Z,15.27
2023-03-06T07:41:33.432Z,18.27
2023-03-06T07:42:35.463Z,12.18
2023-03-06T07:43:37.081Z,12.68
2023-03-06T07:44:38.779Z,14.45
2023-03-06T07:45:40.411Z,13.18
2023-03-06T07:46:42.016Z,14.95
2023-03-06T07:47:43.704Z,14.10
2023-03-06T07:48:45.299Z,12.32
2023-03-06T07:49:46.982Z,15.38
2023-03-06T07:50:59.064Z,12.38
2023-03-06T07:52:01.899Z,16.45
2023-03-06T07:53:03.432Z,13.35
2023-03-06T07:54:05.077Z,13.18
2023-03-06T07:55:07.829Z,13.15
2023-03-06T07:56:11.188Z,15.85
2023-03-06T07:57:13.356Z,12.63
2023-03-06T07:58:14.973Z,13.57
2023-03-06T07:59:16.535Z,13.48
2023-03-06T08:00:18.908Z,15.23
2023-03-06T08:01:23.545Z,13.63
2023-03-06T08:02:25.108Z,14.82
2023-03-06T08:03:26.701Z,12.88
2023-03-06T08:04:29.123Z,13.93
2023-03-06T08:05:31.679Z,13.10
2023-03-06T08:06:33.417Z,12.07
2023-03-06T08:07:35.382Z,14.20
2023-03-06T08:08:39.480Z,13.77
2023-03-06T08:09:41.120Z,11.45
2023-03-06T08:10:49.008Z,13.07
2023-03-06T08:11:50.675Z,13.07
2023-03-06T08:12:52.195Z,12.02
2023-03-06T08:13:55.065Z,13.40
2023-03-06T08:14:56.578Z,11.65
2023-03-06T08:15:59.813Z,13.82
2023-03-06T08:17:01.433Z,14.38
2023-03-06T08:18:02.994Z,16.48
2023-03-06T08:19:04.623Z,12.77
2023-03-06T08:20:07.149Z,13.43
2023-03-06T08:21:11.689Z,14.23
2023-03-06T08:22:14.046Z,14.38
2023-03-06T08:23:15.678Z,10.77
2023-03-06T08:24:18.607Z,11.82
2023-03-06T08:25:20.193Z,13.75
2023-03-06T08:26:24.970Z,13.27
2023-03-06T08:27:26.560Z,12.43
2023-03-06T08:28:28.908Z,13.70
2023-03-06T08:29:32.081Z,11.55
2023-03-06T08:30:33.939Z,14.52
2023-03-06T08:31:44.052Z,13.75
2023-03-06T08:32:45.647Z,12.23
2023-03-06T08:33:47.259Z,11.43
2023-03-06T08:34:48.776Z,11.25
2023-03-06T08:35:50.412Z,14.13
2023-03-06T08:36:52.188Z,12.18
2023-03-06T08:37:53.737Z,12.52
2023-03-06T08:38:55.744Z,13.07
2023-03-06T08:39:57.402Z,14.70
2023-03-06T08:40:59.053Z,15.90
2023-03-06T08:42:00.643Z,11.55
2023-03-06T08:43:02.286Z,12.98
2023-03-06T08:44:05.072Z,13.60
2023-03-06T08:45:07.397Z,14.40
2023-03-06T08:46:11.137Z,15.80
2023-03-06T08:47:12.870Z,12.05
2023-03-06T08:48:14.412Z,12.18
2023-03-06T08:49:16.088Z,13.77
2023-03-06T08:50:18.999Z,13.65
2023-03-06T08:51:22.033Z,14.63
2023-03-06T08:52:23.560Z,11.63
2023-03-06T08:53:40.456Z,13.55
2023-03-06T08:54:44.035Z,13.43
2023-03-06T08:55:45.777Z,10.90
2023-03-06T08:56:47.641Z,12.55
2023-03-06T08:57:49.238Z,11.25
2023-03-06T08:58:50.899Z,11.90
2023-03-06T08:59:52.444Z,11.60
2023-03-06T09:00:54.319Z,13.05
2023-03-06T09:01:55.998Z,10.57
2023-03-06T09:02:57.743Z,11.23
2023-03-06T09:04:01.605Z,12.27
2023-03-06T09:05:08.208Z,12.18
2023-03-06T09:06:09.834Z,11.85
2023-03-06T09:07:11.384Z,10.55
2023-03-06T09:08:12.960Z,11.23
2023-03-06T09:09:14.526Z,10.48
2023-03-06T09:10:19.324Z,12.85
2023-03-06T09:11:23.100Z,12.80
2023-03-06T09:12:25.400Z,12.15
2023-03-06T09:13:27.009Z,10.75
2023-03-06T09:14:28.536Z,11.23
2023-03-06T09:15:30.228Z,13.02
2023-03-06T09:16:32.091Z,10.57
2023-03-06T09:17:33.771Z,12.85
2023-03-06T09:18:35.947Z,14.32
2023-03-06T09:19:38.342Z,13.38
2023-03-06T09:20:39.938Z,12.98
2023-03-06T09:21:41.558Z,13.95
2023-03-06T09:22:43.649Z,13.50
2023-03-06T09:23:45.453Z,10.82
2023-03-06T09:24:47.074Z,15.95
2023-03-06T09:25:56.404Z,14.68
2023-03-06T09:26:58.016Z,14.85
2023-03-06T09:28:10.939Z,16.88
2023-03-06T09:29:12.835Z,12.32
2023-03-06T09:30:15.088Z,15.35
2023-03-06T09:31:19.804Z,14.02
2023-03-06T09:32:22.774Z,14.70
2023-03-06T09:33:24.530Z,16.58
2023-03-06T09:34:27.699Z,13.90
2023-03-06T09:35:29.361Z,13.20
2023-03-06T09:36:31.097Z,17.40
2023-03-06T09:37:32.752Z,12.93
2023-03-06T09:38:34.882Z,16.67
2023-03-06T09:39:36.788Z,13.10
2023-03-06T09:41:26.508Z,13.75
2023-03-06T09:42:29.081Z,13.07
2023-03-06T09:43:30.569Z,12.23
2023-03-06T09:44:35.804Z,11.95
2023-03-06T09:45:37.509Z,12.10
2023-03-06T09:46:55.615Z,10.73
2023-03-06T09:48:05.113Z,13.02
2023-03-06T09:50:05.042Z,13.50
2023-03-06T09:51:15.582Z,10.57
2023-03-06T09:52:35.172Z,10.43
2023-03-06T09:53:45.332Z,13.75
2023-03-06T09:55:08.456Z,12.65
2023-03-06T09:56:32.826Z,12.50
2023-03-06T09:58:00.693Z,12.40
2023-03-06T09:59:13.295Z,15.63
2023-03-06T10:00:19.502Z,12.93
2023-03-06T10:01:26.993Z,12.23
2023-03-06T10:02:53.296Z,11.75
2023-03-06T10:04:18.967Z,11.85
2023-03-06T10:05:26.252Z,13.52
2023-03-06T10:06:36.836Z,14.35
2023-03-06T10:08:03.002Z,12.63
2023-03-06T10:09:13.397Z,14.40
2023-03-06T10:10:25.677Z,12.27
2023-03-06T10:11:37.972Z,14.13
2023-03-06T10:12:45.072Z,13.15
2023-03-06T10:14:28.350Z,13.65
2023-03-06T10:15:36.230Z,12.80
2023-03-06T10:16:38.103Z,14.85
2023-03-06T10:17:41.891Z,11.55
2023-03-06T10:18:43.472Z,13.85
2023-03-06T10:19:47.624Z,14.77
2023-03-06T10:20:49.113Z,13.27
2023-03-06T10:22:01.034Z,24.20
2023-03-06T10:23:28.454Z,12.73
2023-03-06T10:24:33.014Z,13.88
2023-03-06T10:26:01.740Z,13.55
2023-03-06T10:27:28.998Z,15.13
2023-03-06T10:28:35.433Z,13.55
2023-03-06T10:29:38.463Z,14.68
2023-03-06T10:31:16.593Z,15.32
2023-03-06T10:32:47.428Z,13.65
2023-03-06T10:35:01.658Z,14.00
2023-03-06T10:36:04.085Z,13.38
2023-03-06T10:37:19.621Z,16.08
2023-03-06T10:38:37.319Z,13.63
2023-03-06T10:39:39.695Z,16.23
2023-03-06T10:40:50.960Z,13.38
2023-03-06T10:41:52.745Z,13.00
2023-03-06T10:43:09.498Z,12.20
2023-03-06T10:44:12.444Z,13.88
2023-03-06T10:45:17.156Z,13.95
2023-03-06T10:46:28.526Z,15.35
2023-03-06T10:47:35.200Z,13.95
2023-03-06T10:48:40.889Z,14.75
2023-03-06T10:49:57.940Z,13.15
2023-03-06T10:51:23.861Z,15.00
2023-03-06T10:52:29.842Z,14.95
2023-03-06T10:53:31.423Z,12.70
2023-03-06T10:54:39.209Z,16.70
2023-03-06T10:55:40.981Z,15.80
2023-03-06T10:56:44.892Z,13.73
2023-03-06T10:57:46.463Z,16.90
2023-03-06T10:58:48.066Z,12.10
2023-03-06T11:00:01.706Z,16.67
2023-03-06T11:01:32.984Z,14.35
2023-03-06T11:02:38.536Z,15.30
2023-03-06T11:03:41.072Z,15.20
2023-03-06T11:04:51.337Z,14.70
2023-03-06T11:06:12.670Z,15.02
2023-03-06T11:07:23.864Z,15.75
2023-03-06T11:08:25.471Z,12.43
2023-03-06T11:09:27.056Z,14.60
2023-03-06T11:10:30.778Z,16.08
2023-03-06T11:11:37.817Z,13.23
2023-03-06T11:12:41.719Z,14.43
2023-03-06T11:13:44.176Z,12.43
2023-03-06T11:14:45.768Z,14.57
2023-03-06T11:16:00.908Z,13.65
2023-03-06T11:17:02.474Z,13.30
2023-03-06T11:18:35.187Z,14.40
2023-03-06T11:20:51.876Z,13.77
2023-03-06T11:22:04.293Z,14.57
2023-03-06T11:23:16.092Z,17.85
2023-03-06T11:24:20.557Z,12.77
2023-03-06T11:25:27.612Z,14.43
2023-03-06T11:26:37.128Z,15.35
2023-03-06T11:27:42.777Z,14.10
2023-03-06T11:28:44.277Z,11.60
2023-03-06T11:29:50.478Z,13.07
2023-03-06T11:31:02.316Z,11.80
2023-03-06T11:32:12.471Z,13.82
2023-03-06T11:33:27.713Z,12.55
2023-03-06T11:34:38.355Z,10.40
2023-03-06T11:35:50.720Z,10.77
2023-03-06T11:37:11.364Z,11.73
2023-03-06T11:38:12.862Z,10.90
2023-03-06T11:39:55.223Z,10.07
2023-03-06T11:41:00.356Z,11.20
2023-03-06T11:42:25.681Z,10.45
2023-03-06T11:43:36.650Z,12.27
2023-03-06T11:44:54.527Z,9.70
2023-03-06T11:46:22.289Z,8.77
2023-03-06T11:47:29.407Z,12.13
2023-03-06T11:48:42.229Z,11.35
2023-03-06T11:49:49.312Z,11.70
2023-03-06T11:50:53.099Z,9.60
2023-03-06T11:52:04.316Z,12.23
2023-03-06T11:53:10.738Z,12.27
2023-03-06T11:54:13.988Z,10.90
2023-03-06T11:55:20.816Z,10.50
2023-03-06T11:56:34.294Z,11.32
2023-03-06T11:57:56.822Z,11.93
2023-03-06T11:59:19.640Z,11.10
2023-03-06T12:00:59.122Z,11.18
2023-03-06T12:02:19.493Z,9.65
2023-03-06T12:03:56.921Z,8.25
2023-03-06T12:05:17.773Z,8.70
2023-03-06T12:06:25.262Z,11.57
2023-03-06T12:07:34.211Z,9.18
2023-03-06T12:09:09.462Z,9.38
2023-03-06T12:10:35.275Z,10.02
2023-03-06T12:11:58.659Z,13.30
2023-03-06T12:13:12.380Z,10.60
2023-03-06T12:14:25.760Z,10.15
2023-03-06T12:15:52.268Z,11.88
2023-03-06T12:17:14.102Z,10.00
2023-03-06T12:18:43.195Z,10.65
2023-03-06T12:19:44.775Z,10.55
2023-03-06T12:21:17.883Z,13.13
2023-03-06T12:22:57.952Z,11.25
2023-03-06T12:24:33.297Z,10.00
2023-03-06T12:25:38.121Z,12.27
2023-03-06T12:26:54.622Z,10.65
2023-03-06T12:27:59.261Z,9.27
2023-03-06T12:29:19.787Z,9.45
2023-03-06T12:30:46.093Z,8.88
2023-03-06T12:32:02.975Z,9.93
2023-03-06T12:33:10.351Z,10.52
2023-03-06T12:34:14.732Z,9.80
2023-03-06T12:35:43.449Z,11.55
2023-03-06T12:36:55.850Z,10.95
2023-03-06T12:37:57.328Z,10.95
2023-03-06T12:39:37.905Z,10.38
2023-03-06T12:41:03.248Z,10.10
2023-03-06T12:42:22.867Z,10.48
2023-03-06T12:43:55.840Z,11.85
2023-03-06T12:44:57.321Z,9.98
2023-03-06T12:46:25.084Z,10.80
2023-03-06T12:47:29.261Z,14.00
2023-03-06T12:48:36.278Z,10.13
2023-03-06T12:49:42.096Z,9.80
2023-03-06T12:50:44.998Z,8.95
2023-03-06T12:51:46.992Z,11.07
2023-03-06T12:52:49.254Z,9.32
2023-03-06T12:53:51.728Z,9.80
2023-03-06T12:54:54.641Z,10.10
2023-03-06T12:55:58.613Z,9.65
2023-03-06T12:57:01.026Z,11.75
2023-03-06T12:58:47.536Z,11.77
2023-03-06T12:59:50.101Z,9.15
2023-03-06T13:01:26.868Z,12.35
2023-03-06T13:02:56.469Z,10.95
2023-03-06T13:04:05.111Z,10.38
2023-03-06T13:05:22.241Z,8.88
2023-03-06T13:06:26.508Z,10.50
2023-03-06T13:07:42.241Z,9.13
2023-03-06T13:09:02.498Z,11.63
2023-03-06T13:10:25.703Z,11.68
2023-03-06T13:11:47.475Z,9.82
2023-03-06T13:12:58.042Z,15.07
2023-03-06T13:13:59.667Z,15.40
2023-03-06T13:15:18.889Z,9.57
2023-03-06T13:16:32.660Z,10.88
2023-03-06T13:17:38.567Z,11.68
2023-03-06T13:18:43.197Z,11.80
2023-03-06T13:19:44.772Z,13.07
2023-03-06T13:20:46.436Z,12.23
2023-03-06T13:21:53.835Z,10.05
2023-03-06T13:22:56.346Z,29.50
2023-03-06T13:24:24.669Z,18.50
2023-03-06T13:25:26.216Z,10.05
2023-03-06T13:26:27.733Z,12.18
2023-03-06T13:27:52.052Z,12.55
2023-03-06T13:28:57.723Z,10.98
2023-03-06T13:30:19.959Z,11.18
2023-03-06T13:31:33.803Z,9.60
2023-03-06T13:32:36.297Z,9.85
2023-03-06T13:33:37.882Z,11.95
2023-03-06T13:34:46.871Z,12.30
2023-03-06T13:35:52.463Z,11.27
2023-03-06T13:37:14.004Z,10.68
2023-03-06T13:38:33.150Z,10.30
2023-03-06T13:39:54.621Z,10.82
2023-03-06T13:42:36.731Z,13.07
2023-03-06T13:43:43.876Z,9.85
2023-03-06T13:44:49.668Z,13.02
2023-03-06T13:45:51.403Z,12.55
2023-03-06T13:47:02.474Z,11.38
2023-03-06T13:49:28.389Z,12.63
2023-03-06T13:50:43.492Z,9.98
2023-03-06T13:52:25.504Z,12.20
2023-03-06T13:53:53.864Z,11.57
2023-03-06T13:55:13.063Z,9.27
2023-03-06T13:56:23.543Z,11.50
2023-03-06T13:57:39.962Z,12.48
2023-03-06T13:58:44.158Z,9.15
2023-03-06T14:00:16.577Z,10.10
2023-03-06T14:01:44.793Z,11.48
2023-03-06T14:03:17.399Z,10.13
2023-03-06T14:04:42.030Z,10.38
2023-03-06T14:05:49.820Z,13.50
2023-03-06T14:07:12.305Z,9.90
2023-03-06T14:08:19.832Z,13.07
2023-03-06T14:09:24.554Z,10.23
2023-03-06T14:10:27.175Z,9.35
2023-03-06T14:11:29.337Z,12.27
2023-03-06T14:12:38.125Z,11.30
2023-03-06T14:13:47.855Z,11.93
2023-03-06T14:14:56.854Z,12.90